Faust — SLKQ — position and weather

sailwx.info

Track history (hours):
 
Tides and Currents Weather Stations Pressure Air Temp Water Temp Dewpoint Dewpoint Depression Visibility Wind Speed Wind Dir Waves Ship Positions

Faust

Last reported at 2015-Jul-30 00:21 UTC. Time now 2015-Jul-31 19:23 UTC.
Position N 03°21' E 100°23'.

Length 227.8 m; beam 32.3 m; draft 9.5 m.

Type: Cargo ship. MMSI: 266260000.

Date/timePositionNaut miles runAvg speedWind from/ knotsBaromVisibWave heightAir tempDewpointWater temp
2015-Jul-30 00:21N 03°21' E 100°23'3117.0
2015-Jul-29 22:33N 03°02' E 100°47'3115.5
2015-Jul-29 20:33N 02°43' E 101°12'1615.9
2015-Jul-29 19:33N 02°36' E 101°26'1716.5
2015-Jul-29 18:33N 02°28' E 101°40'13716.9
2015-Jul-29 10:24N 01°12' E 103°35'1416.3
2015-Jul-29 09:33N 01°11' E 103°49'13 4.1
2015-Jul-29 06:30N 01°17' E 103°60'0 0.0
2015-Jul-29 02:09N 01°17' E 103°60'0 0.0
2015-Jul-29 01:18N 01°17' E 103°60'0 0.0
2015-Jul-29 00:27N 01°17' E 103°60'0 0.0
2015-Jul-28 23:21N 01°17' E 103°60'1 1.3
2015-Jul-28 22:32N 01°16' E 103°59'3 3.1
2015-Jul-28 21:33N 01°16' E 104°02'  
Track history (hours):
 
Tides and Currents Weather Stations Pressure Air Temp Water Temp Dewpoint Dewpoint Depression Visibility Wind Speed Wind Dir Waves Ship Positions

Faust

Last reported at 2015-Jul-30 00:21 UTC. Time now 2015-Jul-31 19:23 UTC.
Position N 03°21' E 100°23'.

Length 227.8 m; beam 32.3 m; draft 9.5 m.

Type: Cargo ship. MMSI: 266260000.

Date/timePositionNaut miles runAvg speedWind from/ knotsBaromVisibWave heightAir tempDewpointWater temp
2015-Jul-30 00:21N 03°21' E 100°23'3117.0
2015-Jul-29 22:33N 03°02' E 100°47'3115.5
2015-Jul-29 20:33N 02°43' E 101°12'1615.9
2015-Jul-29 19:33N 02°36' E 101°26'1716.5
2015-Jul-29 18:33N 02°28' E 101°40'13716.9
2015-Jul-29 10:24N 01°12' E 103°35'1416.3
2015-Jul-29 09:33N 01°11' E 103°49'13 4.1
2015-Jul-29 06:30N 01°17' E 103°60'0 0.0
2015-Jul-29 02:09N 01°17' E 103°60'0 0.0
2015-Jul-29 01:18N 01°17' E 103°60'0 0.0
2015-Jul-29 00:27N 01°17' E 103°60'0 0.0
2015-Jul-28 23:21N 01°17' E 103°60'1 1.3
2015-Jul-28 22:32N 01°16' E 103°59'3 3.1
2015-Jul-28 21:33N 01°16' E 104°02'  

Dump ship's entire track history